createdAt,value
2022-07-30T00:00:39.744Z,101257.34
2022-07-30T00:02:01.372Z,101254.00
2022-07-30T00:03:04.529Z,101254.00
2022-07-30T00:04:06.413Z,101250.66
2022-07-30T00:05:10.519Z,101249.97
2022-07-30T00:06:12.113Z,101252.66
2022-07-30T00:07:14.804Z,101252.66
2022-07-30T00:08:16.441Z,101251.81
2022-07-30T00:09:19.241Z,101251.00
2022-07-30T00:10:22.983Z,101248.47
2022-07-30T00:11:27.831Z,101245.97
2022-07-30T00:12:29.829Z,101249.69
2022-07-30T00:13:32.545Z,101252.38
2022-07-30T00:14:35.105Z,101254.41
2022-07-30T00:15:37.920Z,101241.75
2022-07-30T00:16:40.895Z,101242.94
2022-07-30T00:17:43.820Z,101252.06
2022-07-30T00:18:50.830Z,101238.75
2022-07-30T00:19:54.215Z,101252.25
2022-07-30T00:21:01.558Z,101247.84
2022-07-30T00:22:03.481Z,101245.34
2022-07-30T00:23:09.235Z,101245.72
2022-07-30T00:24:11.377Z,101240.31
2022-07-30T00:25:13.957Z,101241.31
2022-07-30T00:26:15.839Z,101242.34
2022-07-30T00:27:18.486Z,101239.81
2022-07-30T00:28:20.271Z,101242.53
2022-07-30T00:29:22.808Z,101246.38
2022-07-30T00:30:24.622Z,101237.66
2022-07-30T00:31:27.265Z,101244.06
2022-07-30T00:32:34.404Z,101238.84
2022-07-30T00:33:37.009Z,101244.41
2022-07-30T00:34:38.673Z,101243.75
2022-07-30T00:35:41.325Z,101248.47
2022-07-30T00:36:43.302Z,101242.25
2022-07-30T00:37:45.896Z,101247.81
2022-07-30T00:38:48.018Z,101244.47
2022-07-30T00:39:50.773Z,101247.16
2022-07-30T00:40:53.752Z,101247.31
2022-07-30T00:41:59.177Z,101243.78
2022-07-30T00:43:00.923Z,101249.53
2022-07-30T00:44:03.498Z,101245.16
2022-07-30T00:45:06.337Z,101244.13
2022-07-30T00:46:09.027Z,101254.25
2022-07-30T00:47:10.754Z,101246.31
2022-07-30T00:48:15.728Z,101244.63
2022-07-30T00:49:17.483Z,101247.50
2022-07-30T00:50:20.271Z,101240.59
2022-07-30T00:51:23.247Z,101240.59
2022-07-30T00:52:25.910Z,101245.16
2022-07-30T00:53:27.503Z,101245.31
2022-07-30T00:54:30.099Z,101248.19
2022-07-30T00:55:31.820Z,101250.25
2022-07-30T00:56:34.444Z,101253.94
2022-07-30T00:57:36.733Z,101251.25
2022-07-30T00:58:39.315Z,101251.41
2022-07-30T00:59:40.944Z,101253.25
2022-07-30T01:00:44.435Z,101254.28
2022-07-30T01:01:46.712Z,101249.06
2022-07-30T01:02:49.413Z,101251.75
2022-07-30T01:03:52.391Z,101256.28
2022-07-30T01:04:55.433Z,101251.94
2022-07-30T01:05:57.272Z,101251.25
2022-07-30T01:07:00.135Z,101251.25
2022-07-30T01:08:02.266Z,101256.84
2022-07-30T01:09:05.035Z,101250.75
2022-07-30T01:10:08.859Z,101255.34
2022-07-30T01:11:12.550Z,101252.78
2022-07-30T01:12:18.288Z,101254.00
2022-07-30T01:13:21.029Z,101261.38
2022-07-30T01:14:23.433Z,101255.19
2022-07-30T01:15:27.781Z,101250.97
2022-07-30T01:16:29.749Z,101256.34
2022-07-30T01:17:32.464Z,101254.69
2022-07-30T01:18:50.170Z,101256.69
2022-07-30T01:19:59.008Z,101247.97
2022-07-30T01:21:06.689Z,101248.31
2022-07-30T01:22:16.212Z,101252.00
2022-07-30T01:23:26.048Z,101247.81
2022-07-30T01:24:33.474Z,101252.34
2022-07-30T01:25:51.006Z,101252.53
2022-07-30T01:26:54.440Z,101252.69
2022-07-30T01:28:00.861Z,101250.16
2022-07-30T01:29:03.625Z,101248.66
2022-07-30T01:30:08.488Z,101256.72
2022-07-30T01:31:11.950Z,101257.91
2022-07-30T01:32:15.503Z,101257.06
2022-07-30T01:33:19.054Z,101250.19
2022-07-30T01:34:23.082Z,101250.34
2022-07-30T01:35:28.674Z,101254.06
2022-07-30T01:36:31.783Z,101253.38
2022-07-30T01:37:36.592Z,101253.56
2022-07-30T01:38:40.121Z,101247.50
2022-07-30T01:39:43.268Z,101254.06
2022-07-30T01:40:46.759Z,101254.25
2022-07-30T01:41:51.563Z,101256.44
2022-07-30T01:42:55.265Z,101261.13
2022-07-30T01:43:59.169Z,101257.78
2022-07-30T01:45:01.417Z,101252.75
2022-07-30T01:46:05.488Z,101253.59
2022-07-30T01:47:11.542Z,101258.44
2022-07-30T01:48:17.832Z,101262.13
2022-07-30T01:49:21.694Z,101261.47
2022-07-30T01:50:25.565Z,101263.47
2022-07-30T01:51:37.396Z,101258.41
2022-07-30T01:52:42.704Z,101260.44
2022-07-30T01:53:46.582Z,101259.75
2022-07-30T01:54:51.111Z,101264.47
2022-07-30T01:55:56.365Z,101254.72
2022-07-30T01:57:01.462Z,101261.28
2022-07-30T01:58:06.663Z,101264.16
2022-07-30T01:59:10.760Z,101264.31
2022-07-30T02:00:14.640Z,101272.38
2022-07-30T02:01:16.331Z,101268.19
2022-07-30T02:02:19.260Z,101271.03
2022-07-30T02:03:22.047Z,101262.28
2022-07-30T02:04:25.192Z,101268.53
2022-07-30T02:05:30.654Z,101272.22
2022-07-30T02:06:35.914Z,101267.81
2022-07-30T02:07:42.096Z,101275.91
2022-07-30T02:08:49.668Z,101274.25
2022-07-30T02:09:55.822Z,101268.00
2022-07-30T02:11:06.387Z,101277.94
2022-07-30T02:12:29.348Z,101267.16
2022-07-30T02:13:34.588Z,101275.25
2022-07-30T02:14:41.123Z,101269.19
2022-07-30T02:15:50.717Z,101271.69
2022-07-30T02:16:56.221Z,101276.41
2022-07-30T02:18:02.760Z,101275.56
2022-07-30T02:19:09.689Z,101274.91
2022-07-30T02:20:18.123Z,101277.59
2022-07-30T02:21:21.030Z,101275.91
2022-07-30T02:22:24.782Z,101271.53
2022-07-30T02:23:29.487Z,101277.75
2022-07-30T02:24:34.395Z,101273.56
2022-07-30T02:25:43.285Z,101278.94
2022-07-30T02:26:51.905Z,101278.94
2022-07-30T02:27:59.284Z,101271.84
2022-07-30T02:29:02.874Z,101275.53
2022-07-30T02:30:06.973Z,101278.25
2022-07-30T02:31:17.289Z,101273.88
2022-07-30T02:32:22.202Z,101277.56
2022-07-30T02:33:28.523Z,101278.56
2022-07-30T02:34:35.925Z,101275.22
2022-07-30T02:35:39.506Z,101278.06
2022-07-30T02:36:43.102Z,101280.94
2022-07-30T02:37:49.091Z,101283.78
2022-07-30T02:38:52.295Z,101276.72
2022-07-30T02:39:56.705Z,101276.88
2022-07-30T02:41:01.633Z,101282.59
2022-07-30T02:42:07.252Z,101289.81
2022-07-30T02:43:09.756Z,101283.91
2022-07-30T02:44:13.467Z,101290.31
2022-07-30T02:45:17.668Z,101283.25
2022-07-30T02:46:23.716Z,101284.44
2022-07-30T02:47:28.467Z,101292.66
2022-07-30T02:48:34.906Z,101288.44
2022-07-30T02:49:39.717Z,101282.22
2022-07-30T02:50:43.117Z,101280.53
2022-07-30T02:51:48.189Z,101285.09
2022-07-30T02:52:52.549Z,101291.47
2022-07-30T02:53:57.622Z,101287.09
2022-07-30T02:55:01.061Z,101288.94
2022-07-30T02:56:06.170Z,101290.78
2022-07-30T02:57:10.053Z,101285.38
2022-07-30T02:58:16.458Z,101283.72
2022-07-30T02:59:20.429Z,101285.56
2022-07-30T03:00:25.865Z,101284.72
2022-07-30T03:01:29.251Z,101283.88
2022-07-30T03:02:34.201Z,101288.41
2022-07-30T03:03:40.318Z,101282.03
2022-07-30T03:04:44.339Z,101285.72
2022-07-30T03:05:53.513Z,101287.59
2022-07-30T03:06:56.251Z,101286.75
2022-07-30T03:08:00.614Z,101287.59
2022-07-30T03:09:03.161Z,101297.50
2022-07-30T03:10:08.577Z,101291.28
2022-07-30T03:11:11.462Z,101284.38
2022-07-30T03:12:17.009Z,101296.97
2022-07-30T03:13:21.722Z,101285.53
2022-07-30T03:14:24.488Z,101297.13
2022-07-30T03:15:29.525Z,101296.28
2022-07-30T03:16:38.380Z,101291.91
2022-07-30T03:17:43.574Z,101286.53
2022-07-30T03:18:48.137Z,101289.34
2022-07-30T03:19:50.427Z,101292.91
2022-07-30T03:20:57.351Z,101292.06
2022-07-30T03:22:02.256Z,101292.22
2022-07-30T03:23:05.821Z,101293.22
2022-07-30T03:24:11.842Z,101291.53
2022-07-30T03:25:17.759Z,101290.69
2022-07-30T03:26:22.765Z,101284.50
2022-07-30T03:27:27.214Z,101285.47
2022-07-30T03:28:31.108Z,101290.88
2022-07-30T03:29:34.301Z,101295.25
2022-07-30T03:30:36.468Z,101294.41
2022-07-30T03:31:40.986Z,101296.25
2022-07-30T03:32:43.896Z,101297.22
2022-07-30T03:33:47.743Z,101297.22
2022-07-30T03:34:51.284Z,101295.53
2022-07-30T03:35:54.319Z,101299.25
2022-07-30T03:36:58.337Z,101295.88
2022-07-30T03:38:01.355Z,101298.56
2022-07-30T03:39:05.399Z,101297.75
2022-07-30T03:40:08.956Z,101288.81
2022-07-30T03:41:12.748Z,101301.41
2022-07-30T03:42:15.957Z,101294.53
2022-07-30T03:43:33.036Z,101299.91
2022-07-30T03:44:35.739Z,101303.59
2022-07-30T03:45:39.884Z,101300.22
2022-07-30T03:46:42.224Z,101302.91
2022-07-30T03:47:47.242Z,101307.59
2022-07-30T03:48:49.152Z,101304.06
2022-07-30T03:49:52.280Z,101304.22
2022-07-30T03:50:54.610Z,101315.97
2022-07-30T03:51:57.970Z,101315.13
2022-07-30T03:53:00.568Z,101314.47
2022-07-30T03:54:04.396Z,101309.94
2022-07-30T03:55:08.139Z,101319.00
2022-07-30T03:56:12.145Z,101312.09
2022-07-30T03:57:15.309Z,101319.31
2022-07-30T03:58:24.354Z,101323.69
2022-07-30T03:59:26.224Z,101319.31
2022-07-30T04:00:29.802Z,101323.00
2022-07-30T04:01:31.802Z,101317.78
2022-07-30T04:02:42.062Z,101325.00
2022-07-30T04:03:43.790Z,101325.00
2022-07-30T04:04:46.708Z,101318.78
2022-07-30T04:05:48.272Z,101319.63
2022-07-30T04:06:50.848Z,101326.00
2022-07-30T04:07:53.556Z,101318.78
2022-07-30T04:08:55.555Z,101318.63
2022-07-30T04:09:58.102Z,101319.63
2022-07-30T04:10:59.753Z,101314.25
2022-07-30T04:12:02.737Z,101325.00
2022-07-30T04:13:09.205Z,101324.16
2022-07-30T04:14:13.632Z,101330.38
2022-07-30T04:16:05.969Z,101324.00
2022-07-30T04:16:43.185Z,101325.00
2022-07-30T04:17:49.116Z,101330.38
2022-07-30T04:18:55.310Z,101333.22
2022-07-30T04:20:02.323Z,101334.06
2022-07-30T04:21:08.486Z,101331.56
2022-07-30T04:22:24.551Z,101343.13
2022-07-30T04:23:27.757Z,101342.28
2022-07-30T04:24:32.029Z,101350.34
2022-07-30T04:25:34.172Z,101345.97
2022-07-30T04:26:38.568Z,101346.13
2022-07-30T04:28:03.003Z,101345.44
2022-07-30T04:29:06.770Z,101347.16
2022-07-30T04:30:11.986Z,101348.81
2022-07-30T04:31:15.639Z,101358.75
2022-07-30T04:32:19.328Z,101357.03
2022-07-30T04:33:21.209Z,101363.25
2022-07-30T04:34:23.698Z,101364.13
2022-07-30T04:35:49.833Z,101361.25
2022-07-30T04:36:50.425Z,101364.94
2022-07-30T04:37:51.988Z,101370.31
2022-07-30T04:38:54.529Z,101364.94
2022-07-30T04:39:57.693Z,101355.34
2022-07-30T04:41:00.444Z,101361.56
2022-07-30T04:42:03.005Z,101365.25
2022-07-30T04:43:04.587Z,101365.25
2022-07-30T04:44:07.304Z,101359.88
2022-07-30T04:45:11.649Z,101370.31
2022-07-30T04:46:14.965Z,101364.94
2022-07-30T04:47:17.084Z,101370.31
2022-07-30T04:48:20.048Z,101362.09
2022-07-30T04:49:23.009Z,101357.56
2022-07-30T04:50:27.214Z,101362.94
2022-07-30T04:51:34.103Z,101373.69
2022-07-30T04:52:37.522Z,101368.47
2022-07-30T04:53:41.765Z,101370.31
2022-07-30T04:54:47.341Z,101372.31
2022-07-30T04:55:49.891Z,101371.16
2022-07-30T04:56:54.168Z,101369.50
2022-07-30T04:57:57.879Z,101381.91
2022-07-30T04:59:01.541Z,101381.03
2022-07-30T05:00:04.780Z,101380.91
2022-07-30T05:01:10.891Z,101384.44
2022-07-30T05:02:15.689Z,101375.34
2022-07-30T05:03:18.873Z,101378.03
2022-07-30T05:04:22.991Z,101381.56
2022-07-30T05:05:27.975Z,101379.91
2022-07-30T05:06:30.955Z,101382.44
2022-07-30T05:07:34.479Z,101393.19
2022-07-30T05:08:36.446Z,101387.81
2022-07-30T05:09:39.143Z,101391.19
2022-07-30T05:10:44.696Z,101387.47
2022-07-30T05:11:51.570Z,101393.56
2022-07-30T05:12:53.200Z,101395.94
2022-07-30T05:13:55.883Z,101399.28
2022-07-30T05:14:57.524Z,101387.38
2022-07-30T05:16:00.130Z,101384.53
2022-07-30T05:17:03.853Z,101403.03
2022-07-30T05:18:07.125Z,101392.63
2022-07-30T05:19:09.275Z,101397.69
2022-07-30T05:20:12.693Z,101392.03
2022-07-30T05:21:14.323Z,101390.84
2022-07-30T05:22:16.866Z,101401.28
2022-07-30T05:23:18.523Z,101401.13
2022-07-30T05:24:22.985Z,101398.31
2022-07-30T05:25:24.580Z,101403.50
2022-07-30T05:26:27.883Z,101399.81
2022-07-30T05:27:29.789Z,101399.69
2022-07-30T05:28:32.540Z,101398.66
2022-07-30T05:29:34.189Z,101396.66
2022-07-30T05:30:38.098Z,101396.47
2022-07-30T05:31:43.538Z,101401.72
2022-07-30T05:32:49.303Z,101398.03
2022-07-30T05:33:51.980Z,101392.81
2022-07-30T05:34:54.995Z,101395.63
2022-07-30T05:35:58.282Z,101395.81
2022-07-30T05:37:02.599Z,101398.66
2022-07-30T05:38:04.417Z,101404.03
2022-07-30T05:39:07.009Z,101397.84
2022-07-30T05:40:09.645Z,101405.91
2022-07-30T05:41:19.062Z,101406.91
2022-07-30T05:42:35.118Z,101404.22
2022-07-30T05:43:36.741Z,101415.63
2022-07-30T05:44:39.943Z,101409.25
2022-07-30T05:45:41.664Z,101411.94
2022-07-30T05:46:44.245Z,101405.59
2022-07-30T05:47:48.188Z,101410.97
2022-07-30T05:48:50.813Z,101414.47
2022-07-30T05:49:53.052Z,101413.66
2022-07-30T05:50:55.688Z,101412.63
2022-07-30T05:51:57.547Z,101417.00
2022-07-30T05:53:01.785Z,101413.31
2022-07-30T05:54:04.117Z,101418.38
2022-07-30T05:55:07.953Z,101422.59
2022-07-30T05:56:09.539Z,101419.56
2022-07-30T05:57:12.475Z,101417.56
2022-07-30T05:58:14.089Z,101414.72
2022-07-30T05:59:16.653Z,101420.75
2022-07-30T06:00:18.579Z,101422.47
2022-07-30T06:01:21.206Z,101422.47
2022-07-30T06:02:24.383Z,101416.94
2022-07-30T06:03:28.677Z,101415.06
2022-07-30T06:04:30.720Z,101420.28
2022-07-30T06:05:33.489Z,101423.84
2022-07-30T06:06:35.051Z,101419.44
2022-07-30T06:07:37.656Z,101420.44
2022-07-30T06:08:39.326Z,101425.81
2022-07-30T06:09:41.891Z,101425.81
2022-07-30T06:10:43.529Z,101425.16
2022-07-30T06:11:46.187Z,101419.09
2022-07-30T06:12:48.020Z,101419.09
2022-07-30T06:13:50.576Z,101429.84
2022-07-30T06:14:52.296Z,101425.31
2022-07-30T06:15:54.936Z,101428.84
2022-07-30T06:16:56.548Z,101424.16
2022-07-30T06:18:02.001Z,101428.50
2022-07-30T06:19:05.372Z,101422.84
2022-07-30T06:20:09.214Z,101427.03
2022-07-30T06:21:11.083Z,101432.25
2022-07-30T06:22:13.671Z,101431.09
2022-07-30T06:23:15.401Z,101435.31
2022-07-30T06:24:17.981Z,101438.53
2022-07-30T06:25:19.572Z,101436.34
2022-07-30T06:26:22.192Z,101436.03
2022-07-30T06:27:23.824Z,101436.53
2022-07-30T06:28:41.814Z,101443.25
2022-07-30T06:29:44.433Z,101437.56
2022-07-30T06:30:47.996Z,101443.44
2022-07-30T06:31:50.598Z,101444.31
2022-07-30T06:32:52.320Z,101440.59
2022-07-30T06:33:54.928Z,101439.63
2022-07-30T06:35:04.120Z,101446.50
2022-07-30T06:36:08.265Z,101451.91
2022-07-30T06:37:15.831Z,101447.84
2022-07-30T06:38:18.513Z,101447.97
2022-07-30T06:39:53.764Z,101447.16
2022-07-30T06:40:44.122Z,101443.31
2022-07-30T06:41:45.680Z,101444.16
2022-07-30T06:42:48.276Z,101445.81
2022-07-30T06:43:50.892Z,101448.16
2022-07-30T06:44:53.476Z,101444.34
2022-07-30T06:45:57.513Z,101447.53
2022-07-30T06:47:05.400Z,101450.91
2022-07-30T06:48:09.495Z,101447.22
2022-07-30T06:49:12.229Z,101456.97
2022-07-30T06:50:15.722Z,101452.41
2022-07-30T06:51:18.296Z,101450.56
2022-07-30T06:52:19.965Z,101453.13
2022-07-30T06:53:22.606Z,101450.28
2022-07-30T06:54:24.354Z,101455.31
2022-07-30T06:55:26.921Z,101461.09
2022-07-30T06:56:28.506Z,101457.88
2022-07-30T06:57:31.106Z,101454.84
2022-07-30T06:58:36.240Z,101460.09
2022-07-30T06:59:56.509Z,101454.38
2022-07-30T07:01:00.115Z,101456.72
2022-07-30T07:02:01.867Z,101456.38
2022-07-30T07:03:07.490Z,101458.75
2022-07-30T07:04:11.939Z,101458.75
2022-07-30T07:05:15.958Z,101459.44
2022-07-30T07:06:17.665Z,101458.78
2022-07-30T07:07:40.233Z,101465.19
2022-07-30T07:08:42.740Z,101464.16
2022-07-30T07:09:44.798Z,101461.47
2022-07-30T07:10:47.541Z,101463.16
2022-07-30T07:11:49.124Z,101463.81
2022-07-30T07:12:51.698Z,101462.16
2022-07-30T07:13:54.227Z,101465.66
2022-07-30T07:14:56.033Z,101458.75
2022-07-30T07:15:59.089Z,101462.50
2022-07-30T07:17:01.267Z,101460.13
2022-07-30T07:18:04.471Z,101464.16
2022-07-30T07:19:06.152Z,101461.63
2022-07-30T07:20:09.804Z,101465.16
2022-07-30T07:21:13.838Z,101461.63
2022-07-30T07:22:16.657Z,101468.84
2022-07-30T07:23:19.768Z,101465.50
2022-07-30T07:24:22.563Z,101470.03
2022-07-30T07:25:24.564Z,101465.50
2022-07-30T07:26:27.526Z,101469.03
2022-07-30T07:27:29.115Z,101473.25
2022-07-30T07:28:33.462Z,101474.94
2022-07-30T07:29:35.316Z,101467.50
2022-07-30T07:30:38.069Z,101471.91
2022-07-30T07:32:07.381Z,101465.53
2022-07-30T07:33:02.421Z,101467.03
2022-07-30T07:34:05.411Z,101467.69
2022-07-30T07:35:08.122Z,101466.84
2022-07-30T07:36:10.824Z,101470.06
2022-07-30T07:37:15.888Z,101467.88
2022-07-30T07:38:19.255Z,101475.28
2022-07-30T07:39:20.838Z,101477.63
2022-07-30T07:40:24.654Z,101479.31
2022-07-30T07:41:26.405Z,101468.41
2022-07-30T07:42:28.947Z,101468.22
2022-07-30T07:43:30.602Z,101477.81
2022-07-30T07:44:33.464Z,101479.50
2022-07-30T07:45:35.267Z,101467.88
2022-07-30T07:46:37.931Z,101475.94
2022-07-30T07:47:43.725Z,101471.41
2022-07-30T07:48:55.746Z,101470.56
2022-07-30T07:49:58.328Z,101472.91
2022-07-30T07:51:00.743Z,101467.53
2022-07-30T07:52:03.513Z,101467.88
2022-07-30T07:53:06.526Z,101463.66
2022-07-30T07:54:20.959Z,101475.44
2022-07-30T07:55:24.957Z,101467.22
2022-07-30T07:56:27.140Z,101475.94
2022-07-30T07:57:29.684Z,101472.41
2022-07-30T07:58:33.058Z,101474.09
2022-07-30T07:59:40.227Z,101470.22
2022-07-30T08:00:42.616Z,101475.47
2022-07-30T08:01:46.516Z,101476.13
2022-07-30T08:02:49.574Z,101474.13
2022-07-30T08:03:52.188Z,101468.53
2022-07-30T08:04:54.073Z,101469.19
2022-07-30T08:06:05.629Z,101468.19
2022-07-30T08:07:08.242Z,101469.94
2022-07-30T08:08:12.313Z,101469.59
2022-07-30T08:09:15.961Z,101462.84
2022-07-30T08:10:17.786Z,101468.56
2022-07-30T08:11:20.380Z,101466.22
2022-07-30T08:12:22.061Z,101462.13
2022-07-30T08:13:51.537Z,101464.69
2022-07-30T08:14:47.239Z,101471.75
2022-07-30T08:15:49.008Z,101472.41
2022-07-30T08:16:51.817Z,101462.28
2022-07-30T08:17:53.512Z,101462.97
2022-07-30T08:18:56.073Z,101465.50
2022-07-30T08:19:58.761Z,101465.50
2022-07-30T08:21:01.363Z,101459.09
2022-07-30T08:22:04.007Z,101453.69
2022-07-30T08:23:06.083Z,101460.44
2022-07-30T08:24:10.123Z,101461.78
2022-07-30T08:25:11.875Z,101470.19
2022-07-30T08:26:27.020Z,101455.34
2022-07-30T08:27:28.710Z,101469.16
2022-07-30T08:28:35.877Z,101456.16
2022-07-30T08:29:38.278Z,101454.59
2022-07-30T08:30:40.954Z,101461.19
2022-07-30T08:31:42.635Z,101460.47
2022-07-30T08:32:45.189Z,101460.97
2022-07-30T08:33:46.846Z,101459.66
2022-07-30T08:34:49.771Z,101460.97
2022-07-30T08:35:54.918Z,101463.31
2022-07-30T08:37:06.591Z,101468.72
2022-07-30T08:38:08.451Z,101462.94
2022-07-30T08:39:12.383Z,101464.63
2022-07-30T08:40:15.063Z,101455.53
2022-07-30T08:41:19.063Z,101462.78
2022-07-30T08:42:22.928Z,101462.94
2022-07-30T08:43:25.593Z,101470.41
2022-07-30T08:44:30.024Z,101468.34
2022-07-30T08:45:35.194Z,101466.34
2022-07-30T08:46:47.193Z,101469.69
2022-07-30T08:47:52.934Z,101473.72
2022-07-30T08:48:55.041Z,101469.66
2022-07-30T08:50:01.724Z,101476.41
2022-07-30T08:51:04.454Z,101475.84
2022-07-30T08:52:09.019Z,101468.88
2022-07-30T08:53:11.009Z,101472.75
2022-07-30T08:54:18.723Z,101467.66
2022-07-30T08:55:21.256Z,101467.97
2022-07-30T08:56:23.848Z,101466.78
2022-07-30T08:57:25.996Z,101468.09
2022-07-30T08:58:32.250Z,101470.63
2022-07-30T08:59:59.340Z,101464.38
2022-07-30T09:00:58.066Z,101469.75
2022-07-30T09:02:00.206Z,101472.09
2022-07-30T09:03:03.342Z,101470.09
2022-07-30T09:05:13.990Z,101468.53
2022-07-30T09:06:15.765Z,101463.63
2022-07-30T09:07:18.499Z,101469.53
2022-07-30T09:08:20.178Z,101467.66
2022-07-30T09:09:24.732Z,101464.41
2022-07-30T09:10:27.011Z,101472.34
2022-07-30T09:11:29.835Z,101467.59
2022-07-30T09:12:36.738Z,101471.97
2022-07-30T09:13:41.619Z,101475.31
2022-07-30T09:15:01.750Z,101472.63
2022-07-30T09:16:06.447Z,101471.63
2022-07-30T09:17:08.098Z,101473.09
2022-07-30T09:18:10.721Z,101470.25
2022-07-30T09:19:15.989Z,101463.63
2022-07-30T09:20:19.541Z,101464.25
2022-07-30T09:21:23.920Z,101467.66
2022-07-30T09:22:43.574Z,101459.53
2022-07-30T09:24:00.049Z,101468.28
2022-07-30T09:25:03.390Z,101466.06
2022-07-30T09:26:05.910Z,101465.34
2022-07-30T09:27:07.823Z,101468.34
2022-07-30T09:28:16.160Z,101464.06
2022-07-30T09:29:20.176Z,101469.94
2022-07-30T09:30:23.213Z,101469.78
2022-07-30T09:31:27.661Z,101467.91
2022-07-30T09:32:48.001Z,101466.59
2022-07-30T09:33:50.600Z,101466.97
2022-07-30T09:34:52.684Z,101456.50
2022-07-30T09:35:57.215Z,101461.25
2022-07-30T09:37:01.461Z,101468.53
2022-07-30T09:38:06.648Z,101469.38
2022-07-30T09:39:08.495Z,101464.97
2022-07-30T09:40:19.105Z,101466.00
2022-07-30T09:41:40.245Z,101464.97
2022-07-30T09:42:42.184Z,101469.19
2022-07-30T09:43:48.753Z,101474.88
2022-07-30T09:44:50.832Z,101463.53
2022-07-30T09:45:57.250Z,101472.28
2022-07-30T09:46:59.404Z,101472.94
2022-07-30T09:48:02.700Z,101473.97
2022-07-30T09:49:14.645Z,101460.81
2022-07-30T09:50:30.518Z,101463.53
2022-07-30T09:51:56.023Z,101469.09
2022-07-30T09:53:08.943Z,101476.75
2022-07-30T09:54:11.896Z,101475.25
2022-07-30T09:55:16.378Z,101474.41
2022-07-30T09:56:25.779Z,101471.72
2022-07-30T09:57:28.718Z,101472.38
2022-07-30T09:58:45.503Z,101473.88
2022-07-30T09:59:47.488Z,101479.09
2022-07-30T10:00:58.153Z,101472.66
2022-07-30T10:02:04.138Z,101476.22
2022-07-30T10:03:21.731Z,101469.31
2022-07-30T10:04:34.957Z,101474.03
2022-07-30T10:05:51.390Z,101482.84
2022-07-30T10:06:55.999Z,101473.03
2022-07-30T10:08:01.112Z,101467.63
2022-07-30T10:09:14.213Z,101467.63
2022-07-30T10:10:25.527Z,101461.19
2022-07-30T10:11:31.338Z,101455.78
2022-07-30T10:12:34.917Z,101461.84
2022-07-30T10:13:45.578Z,101456.25
2022-07-30T10:14:50.521Z,101459.97
2022-07-30T10:15:53.529Z,101461.84
2022-07-30T10:16:55.484Z,101457.28
2022-07-30T10:17:59.234Z,101459.78
2022-07-30T10:19:01.653Z,101458.59
2022-07-30T10:20:08.252Z,101468.19
2022-07-30T10:21:11.627Z,101465.13
2022-07-30T10:22:14.661Z,101455.31
2022-07-30T10:23:27.149Z,101460.72
2022-07-30T10:24:31.192Z,101465.13
2022-07-30T10:25:49.062Z,101463.25
2022-07-30T10:26:57.666Z,101465.78
2022-07-30T10:28:00.093Z,101463.75
2022-07-30T10:29:05.858Z,101466.91
2022-07-30T10:30:08.500Z,101464.00
2022-07-30T10:31:47.134Z,101467.72
2022-07-30T10:32:38.500Z,101460.66
2022-07-30T10:33:45.231Z,101463.38
2022-07-30T10:34:48.978Z,101457.75
2022-07-30T10:35:51.685Z,101463.00
2022-07-30T10:37:01.818Z,101460.59
2022-07-30T10:38:13.650Z,101468.34
2022-07-30T10:39:21.530Z,101472.38
2022-07-30T10:40:30.844Z,101464.88
2022-07-30T10:41:53.909Z,101466.56
2022-07-30T10:43:15.970Z,101473.47
2022-07-30T10:44:35.275Z,101474.31
2022-07-30T10:45:47.330Z,101477.50
2022-07-30T10:47:01.182Z,101476.47
2022-07-30T10:48:11.870Z,101474.63
2022-07-30T10:49:18.763Z,101481.06
2022-07-30T10:50:26.631Z,101472.94
2022-07-30T10:51:46.598Z,101468.53
2022-07-30T10:52:51.020Z,101468.38
2022-07-30T10:53:53.572Z,101475.25
2022-07-30T10:54:56.172Z,101472.56
2022-07-30T10:56:13.812Z,101465.44
2022-07-30T10:57:26.628Z,101471.72
2022-07-30T10:59:02.997Z,101470.22
2022-07-30T11:00:09.923Z,101462.28
2022-07-30T11:01:17.907Z,101464.97
2022-07-30T11:02:20.396Z,101465.81
2022-07-30T11:03:41.070Z,101450.81
2022-07-30T11:04:47.769Z,101466.19
2022-07-30T11:05:51.552Z,101459.56
2022-07-30T11:07:17.353Z,101462.75
2022-07-30T11:08:35.912Z,101461.72
2022-07-30T11:09:41.819Z,101451.53
2022-07-30T11:10:44.830Z,101453.06
2022-07-30T11:12:04.990Z,101455.56
2022-07-30T11:13:10.706Z,101453.91
2022-07-30T11:14:12.677Z,101450.53
2022-07-30T11:15:18.683Z,101453.91
2022-07-30T11:16:22.530Z,101449.13
2022-07-30T11:17:25.444Z,101454.16
2022-07-30T11:18:28.796Z,101459.03
2022-07-30T11:19:53.391Z,101456.97
2022-07-30T11:21:17.114Z,101443.59
2022-07-30T11:22:25.030Z,101447.16
2022-07-30T11:23:40.306Z,101452.41
2022-07-30T11:24:43.474Z,101446.59
2022-07-30T11:25:51.171Z,101449.56
2022-07-30T11:26:57.251Z,101450.88
2022-07-30T11:28:00.721Z,101453.22
2022-07-30T11:29:06.640Z,101446.38
2022-07-30T11:30:32.186Z,101443.31
2022-07-30T11:31:56.466Z,101442.91
2022-07-30T11:33:23.557Z,101446.28
2022-07-30T11:34:34.746Z,101442.00
2022-07-30T11:35:37.627Z,101456.03
2022-07-30T11:37:18.600Z,101446.19
2022-07-30T11:38:24.698Z,101439.09
2022-07-30T11:40:11.796Z,101437.44
2022-07-30T11:41:14.391Z,101444.50
2022-07-30T11:42:25.985Z,101447.88
2022-07-30T11:43:36.107Z,101453.50
2022-07-30T11:44:38.731Z,101447.88
2022-07-30T11:45:42.143Z,101451.88
2022-07-30T11:46:48.436Z,101449.84
2022-07-30T11:47:52.731Z,101444.03
2022-07-30T11:49:00.117Z,101447.19
2022-07-30T11:50:02.177Z,101436.81
2022-07-30T11:51:05.197Z,101440.84
2022-07-30T11:52:08.488Z,101444.81
2022-07-30T11:53:16.896Z,101444.44
2022-07-30T11:54:18.806Z,101436.75
2022-07-30T11:55:28.143Z,101448.25
2022-07-30T11:56:31.429Z,101450.75
2022-07-30T11:57:39.824Z,101442.06
2022-07-30T11:58:44.701Z,101440.66
2022-07-30T11:59:55.293Z,101445.47
2022-07-30T12:01:00.864Z,101444.69
2022-07-30T12:02:04.604Z,101447.69
2022-07-30T12:03:11.593Z,101444.38
2022-07-30T12:04:14.286Z,101443.19
2022-07-30T12:05:17.009Z,101434.44
2022-07-30T12:06:20.489Z,101438.66
2022-07-30T12:07:23.025Z,101436.38
2022-07-30T12:08:33.451Z,101447.66
2022-07-30T12:09:37.791Z,101441.03
2022-07-30T12:10:56.931Z,101438.75
2022-07-30T12:12:02.269Z,101440.88
2022-07-30T12:13:08.583Z,101430.88
2022-07-30T12:14:11.182Z,101435.91
2022-07-30T12:15:28.960Z,101435.50
2022-07-30T12:16:33.582Z,101430.13
2022-07-30T12:17:43.331Z,101433.91
2022-07-30T12:18:47.575Z,101434.81
2022-07-30T12:19:49.640Z,101430.66
2022-07-30T12:20:59.515Z,101433.25
2022-07-30T12:22:02.370Z,101438.09
2022-07-30T12:23:10.461Z,101424.94
2022-07-30T12:24:13.598Z,101434.38
2022-07-30T12:25:15.644Z,101429.38
2022-07-30T12:26:24.488Z,101421.03
2022-07-30T12:27:28.526Z,101419.16